createdAt,value
2017-10-22T00:01:09.862Z,80.08
2017-10-22T00:03:36.114Z,80.73
2017-10-22T00:06:02.366Z,81.03
2017-10-22T00:08:28.608Z,81.15
2017-10-22T00:10:54.905Z,81.01
2017-10-22T00:13:21.136Z,81.11
2017-10-22T00:15:47.380Z,80.88
2017-10-22T00:18:13.626Z,80.75
2017-10-22T00:20:39.871Z,80.37
2017-10-22T00:23:06.161Z,79.51
2017-10-22T00:25:32.401Z,79.11
2017-10-22T00:27:58.643Z,79.38
2017-10-22T00:30:24.871Z,79.86
2017-10-22T00:32:51.111Z,80.86
2017-10-22T00:35:17.395Z,81.49
2017-10-22T00:37:43.645Z,82.03
2017-10-22T00:40:09.928Z,81.57
2017-10-22T00:42:36.955Z,82.16
2017-10-22T00:45:03.211Z,81.86
2017-10-22T00:47:29.491Z,81.07
2017-10-22T00:49:55.732Z,80.19
2017-10-22T00:52:21.985Z,79.76
2017-10-22T00:54:48.294Z,80.30
2017-10-22T00:57:14.641Z,80.54
2017-10-22T00:59:40.911Z,79.83
2017-10-22T01:02:07.158Z,79.97
2017-10-22T01:04:33.408Z,79.89
2017-10-22T01:06:59.673Z,80.04
2017-10-22T01:09:25.900Z,80.21
2017-10-22T01:11:52.160Z,79.72
2017-10-22T01:14:18.400Z,79.37
2017-10-22T01:16:44.646Z,79.20
2017-10-22T01:19:10.916Z,79.06
2017-10-22T01:21:37.165Z,79.09
2017-10-22T01:24:03.468Z,79.47
2017-10-22T01:26:29.717Z,79.48
2017-10-22T01:28:55.975Z,79.52
2017-10-22T01:31:22.317Z,80.08
2017-10-22T01:33:48.568Z,79.64
2017-10-22T01:36:14.854Z,79.84
2017-10-22T01:38:41.101Z,79.77
2017-10-22T01:41:07.358Z,79.42
2017-10-22T01:43:33.604Z,79.85
2017-10-22T01:45:59.846Z,80.60
2017-10-22T01:48:26.152Z,80.84
2017-10-22T01:50:52.391Z,80.97
2017-10-22T01:53:19.796Z,81.00
2017-10-22T01:55:46.036Z,80.79
2017-10-22T01:58:12.263Z,80.42
2017-10-22T02:00:38.546Z,79.46
2017-10-22T02:03:04.783Z,79.07
2017-10-22T02:05:31.020Z,79.38
2017-10-22T02:07:57.271Z,80.35
2017-10-22T02:10:23.517Z,80.63
2017-10-22T02:12:49.786Z,81.22
2017-10-22T02:15:16.022Z,81.62
2017-10-22T02:17:42.256Z,81.50
2017-10-22T02:20:08.512Z,81.40
2017-10-22T02:22:34.744Z,81.49
2017-10-22T02:25:01.020Z,81.50
2017-10-22T02:27:27.238Z,81.77
2017-10-22T02:29:53.478Z,81.44
2017-10-22T02:32:19.702Z,81.07
2017-10-22T02:34:45.944Z,81.07
2017-10-22T02:37:12.232Z,81.02
2017-10-22T02:39:38.489Z,80.90
2017-10-22T02:42:04.774Z,80.85
2017-10-22T02:44:31.006Z,80.97
2017-10-22T02:46:57.250Z,81.77
2017-10-22T02:49:23.540Z,81.76
2017-10-22T02:51:49.795Z,82.05
2017-10-22T02:54:16.052Z,82.20
2017-10-22T02:56:42.304Z,82.27
2017-10-22T02:59:08.559Z,82.80
2017-10-22T03:01:34.843Z,82.77
2017-10-22T03:04:01.089Z,82.45
2017-10-22T03:06:27.317Z,82.60
2017-10-22T03:08:53.573Z,82.83
2017-10-22T03:11:19.817Z,83.22
2017-10-22T03:13:46.110Z,83.54
2017-10-22T03:16:12.351Z,83.03
2017-10-22T03:18:38.582Z,83.67
2017-10-22T03:21:04.837Z,82.61
2017-10-22T03:23:31.086Z,83.01
2017-10-22T03:25:57.353Z,82.50
2017-10-22T03:28:23.587Z,82.00
2017-10-22T03:30:49.851Z,81.12
2017-10-22T03:33:16.089Z,80.94
2017-10-22T03:35:42.320Z,80.86
2017-10-22T03:38:08.601Z,80.76
2017-10-22T03:40:34.849Z,80.91
2017-10-22T03:43:01.086Z,80.91
2017-10-22T03:45:28.217Z,80.90
2017-10-22T03:47:54.455Z,80.87
2017-10-22T03:50:20.731Z,80.91
2017-10-22T03:52:47.786Z,81.14
2017-10-22T03:55:14.025Z,80.97
2017-10-22T03:57:40.305Z,81.00
2017-10-22T04:00:06.563Z,81.42
2017-10-22T04:02:32.856Z,81.15
2017-10-22T04:04:59.087Z,81.42
2017-10-22T04:07:25.345Z,80.95
2017-10-22T04:09:51.581Z,80.74
2017-10-22T04:12:17.828Z,80.69
2017-10-22T04:14:44.111Z,81.43
2017-10-22T04:17:10.387Z,81.16
2017-10-22T04:19:36.647Z,82.34
2017-10-22T04:22:02.923Z,83.20
2017-10-22T04:24:29.182Z,83.23
2017-10-22T04:26:55.549Z,82.92
2017-10-22T04:29:21.793Z,83.02
2017-10-22T04:31:48.028Z,83.13
2017-10-22T04:34:14.282Z,82.89
2017-10-22T04:36:40.545Z,82.54
2017-10-22T04:39:06.819Z,82.00
2017-10-22T04:41:33.057Z,81.88
2017-10-22T04:43:59.297Z,82.21
2017-10-22T04:46:25.531Z,81.78
2017-10-22T04:48:51.763Z,80.83
2017-10-22T04:51:18.059Z,80.55
2017-10-22T04:53:44.304Z,80.45
2017-10-22T04:56:10.529Z,80.23
2017-10-22T04:58:36.798Z,80.35
2017-10-22T05:01:03.054Z,80.83
2017-10-22T05:03:29.358Z,79.56
2017-10-22T05:05:55.596Z,79.30
2017-10-22T05:08:21.817Z,80.29
2017-10-22T05:10:48.050Z,80.66
2017-10-22T05:13:14.264Z,81.84
2017-10-22T05:15:40.538Z,81.98
2017-10-22T05:18:06.784Z,82.35
2017-10-22T05:20:33.020Z,82.54
2017-10-22T05:22:59.252Z,82.20
2017-10-22T05:25:25.505Z,81.61
2017-10-22T05:27:51.793Z,81.22
2017-10-22T05:30:18.043Z,79.14
2017-10-22T05:32:44.307Z,76.23
2017-10-22T05:35:10.557Z,72.08
2017-10-22T05:37:36.834Z,68.61
2017-10-22T05:40:03.131Z,66.38
2017-10-22T05:42:29.393Z,65.16
2017-10-22T05:44:55.630Z,63.33
2017-10-22T05:47:21.884Z,61.46
2017-10-22T05:49:48.127Z,60.00
2017-10-22T05:52:14.407Z,58.35
2017-10-22T05:54:40.656Z,56.08
2017-10-22T05:57:06.937Z,53.15
2017-10-22T05:59:33.223Z,51.43
2017-10-22T06:01:59.471Z,48.96
2017-10-22T06:04:25.774Z,49.82
2017-10-22T06:06:52.011Z,51.73
2017-10-22T06:09:18.277Z,50.91
2017-10-22T06:11:44.511Z,49.66
2017-10-22T06:14:10.774Z,47.89
2017-10-22T06:16:37.057Z,46.09
2017-10-22T06:19:03.315Z,44.24
2017-10-22T06:21:29.551Z,42.83
2017-10-22T06:23:55.816Z,41.42
2017-10-22T06:26:22.072Z,40.69
2017-10-22T06:28:48.348Z,40.75
2017-10-22T06:31:14.601Z,41.66
2017-10-22T06:33:40.847Z,41.58
2017-10-22T06:36:07.094Z,40.63
2017-10-22T06:38:33.355Z,38.94
2017-10-22T06:40:59.702Z,38.37
2017-10-22T06:43:25.924Z,39.11
2017-10-22T06:45:52.167Z,37.95
2017-10-22T06:48:18.407Z,40.12
2017-10-22T06:50:44.704Z,38.46
2017-10-22T06:53:11.036Z,40.13
2017-10-22T06:55:37.328Z,42.63
2017-10-22T06:58:03.766Z,44.36
2017-10-22T07:00:30.063Z,42.79
2017-10-22T07:02:56.311Z,41.41
2017-10-22T07:05:22.562Z,40.53
2017-10-22T07:07:49.071Z,40.46
2017-10-22T07:10:16.070Z,41.32
2017-10-22T07:12:42.424Z,40.83
2017-10-22T07:15:08.804Z,39.19
2017-10-22T07:17:35.119Z,38.89
2017-10-22T07:20:01.453Z,37.95
2017-10-22T07:22:28.511Z,37.35
2017-10-22T07:24:54.799Z,35.30
2017-10-22T07:27:21.063Z,35.39
2017-10-22T07:29:47.345Z,35.53
2017-10-22T07:32:13.629Z,35.52
2017-10-22T07:34:39.935Z,35.73
2017-10-22T07:37:06.308Z,35.52
2017-10-22T07:39:32.585Z,38.01
2017-10-22T07:41:58.854Z,37.01
2017-10-22T07:44:25.102Z,36.59
2017-10-22T07:46:51.353Z,35.37
2017-10-22T07:49:17.639Z,35.96
2017-10-22T07:51:43.886Z,37.29
2017-10-22T07:54:10.123Z,36.41
2017-10-22T07:56:36.369Z,37.39
2017-10-22T07:59:02.610Z,38.00
2017-10-22T08:01:28.893Z,37.97
2017-10-22T08:03:55.120Z,39.02
2017-10-22T08:06:21.369Z,39.29
2017-10-22T08:08:47.637Z,40.49
2017-10-22T08:11:13.891Z,40.55
2017-10-22T08:13:40.183Z,39.36
2017-10-22T08:16:06.432Z,38.37
2017-10-22T08:18:32.664Z,38.77
2017-10-22T08:20:58.904Z,38.59
2017-10-22T08:23:25.178Z,38.03
2017-10-22T08:25:51.466Z,36.96
2017-10-22T08:28:17.722Z,37.51
2017-10-22T08:30:43.962Z,36.96
2017-10-22T08:33:10.225Z,36.61
2017-10-22T08:35:36.461Z,37.86
2017-10-22T08:38:02.729Z,37.89
2017-10-22T08:40:29.002Z,36.65
2017-10-22T08:42:55.239Z,37.17
2017-10-22T08:45:21.485Z,36.90
2017-10-22T08:47:47.734Z,37.24
2017-10-22T08:50:14.023Z,37.76
2017-10-22T08:52:40.269Z,37.59
2017-10-22T08:55:06.586Z,39.34
2017-10-22T08:57:32.865Z,38.06
2017-10-22T08:59:59.162Z,36.91
2017-10-22T09:02:25.432Z,37.98
2017-10-22T09:04:51.685Z,36.70
2017-10-22T09:07:17.914Z,37.08
2017-10-22T09:09:44.188Z,35.63
2017-10-22T09:12:10.434Z,34.92
2017-10-22T09:14:36.687Z,34.80
2017-10-22T09:17:02.984Z,34.67
2017-10-22T09:19:29.211Z,36.09
2017-10-22T09:21:55.465Z,35.08
2017-10-22T09:24:21.746Z,35.06
2017-10-22T09:26:47.998Z,34.97
2017-10-22T09:29:14.279Z,34.18
2017-10-22T09:31:40.584Z,34.84
2017-10-22T09:34:06.821Z,33.91
2017-10-22T09:36:33.116Z,33.51
2017-10-22T09:38:59.382Z,35.59
2017-10-22T09:41:25.629Z,35.59
2017-10-22T09:43:51.882Z,35.05
2017-10-22T09:46:18.151Z,36.07
2017-10-22T09:48:44.432Z,35.57
2017-10-22T09:51:10.673Z,36.76
2017-10-22T09:53:36.965Z,36.38
2017-10-22T09:56:03.186Z,36.95
2017-10-22T09:58:29.447Z,36.59
2017-10-22T10:00:55.718Z,36.15
2017-10-22T10:03:21.971Z,36.29
2017-10-22T10:05:48.237Z,36.30
2017-10-22T10:08:14.530Z,36.44
2017-10-22T10:10:40.804Z,34.87
2017-10-22T10:13:07.074Z,36.21
2017-10-22T10:15:33.324Z,35.29
2017-10-22T10:17:59.569Z,36.22
2017-10-22T10:20:25.833Z,36.88
2017-10-22T10:22:52.086Z,36.14
2017-10-22T10:25:18.358Z,35.30
2017-10-22T10:27:44.627Z,35.81
2017-10-22T10:30:10.875Z,35.59
2017-10-22T10:32:37.120Z,37.14
2017-10-22T10:35:03.376Z,36.09
2017-10-22T10:37:29.644Z,36.40
2017-10-22T10:39:55.903Z,37.98
2017-10-22T10:42:22.155Z,37.43
2017-10-22T10:44:48.387Z,37.13
2017-10-22T10:47:15.407Z,38.16
2017-10-22T10:49:41.679Z,37.29
2017-10-22T10:52:07.981Z,37.19
2017-10-22T10:54:34.228Z,37.56
2017-10-22T10:57:00.498Z,38.28
2017-10-22T10:59:26.804Z,37.32
2017-10-22T11:01:53.032Z,36.48
2017-10-22T11:04:19.265Z,36.38
2017-10-22T11:06:45.513Z,36.09
2017-10-22T11:09:11.822Z,37.11
2017-10-22T11:11:38.070Z,35.59
2017-10-22T11:14:04.316Z,35.57
2017-10-22T11:16:30.578Z,35.42
2017-10-22T11:18:56.840Z,34.97
2017-10-22T11:21:23.130Z,36.35
2017-10-22T11:23:49.381Z,36.11
2017-10-22T11:26:15.639Z,35.97
2017-10-22T11:28:41.903Z,35.48
2017-10-22T11:31:08.219Z,35.40
2017-10-22T11:33:34.509Z,35.40
2017-10-22T11:36:00.745Z,35.27
2017-10-22T11:38:26.988Z,36.87
2017-10-22T11:40:53.274Z,37.10
2017-10-22T11:43:19.546Z,37.38
2017-10-22T11:45:45.846Z,36.75
2017-10-22T11:48:12.105Z,35.45
2017-10-22T11:50:38.466Z,34.84
2017-10-22T11:53:04.773Z,36.16
2017-10-22T11:55:31.071Z,36.13
2017-10-22T11:57:57.321Z,36.33
2017-10-22T12:00:24.467Z,36.23
2017-10-22T12:02:50.733Z,35.41
2017-10-22T12:05:17.046Z,35.16
2017-10-22T12:07:43.318Z,35.30
2017-10-22T12:10:09.589Z,35.16
2017-10-22T12:12:35.857Z,35.60
2017-10-22T12:15:02.516Z,34.89
2017-10-22T12:17:28.807Z,34.97
2017-10-22T12:19:55.064Z,34.82
2017-10-22T12:22:21.337Z,34.63
2017-10-22T12:24:47.611Z,33.48
2017-10-22T12:27:13.848Z,33.47
2017-10-22T12:29:40.135Z,33.16
2017-10-22T12:32:06.387Z,33.92
2017-10-22T12:34:32.653Z,36.18
2017-10-22T12:36:58.919Z,36.18
2017-10-22T12:39:25.167Z,34.83
2017-10-22T12:41:51.446Z,35.70
2017-10-22T12:44:17.719Z,34.23
2017-10-22T12:46:43.975Z,34.48
2017-10-22T12:49:10.218Z,33.51
2017-10-22T12:51:36.473Z,34.10
2017-10-22T12:54:02.783Z,33.67
2017-10-22T12:56:29.016Z,33.71
2017-10-22T12:58:55.264Z,34.95
2017-10-22T13:01:21.519Z,33.31
2017-10-22T13:03:47.772Z,33.42
2017-10-22T13:06:14.058Z,33.65
2017-10-22T13:08:40.330Z,35.57
2017-10-22T13:11:06.586Z,35.03
2017-10-22T13:13:32.875Z,34.76
2017-10-22T13:15:59.113Z,34.48
2017-10-22T13:18:25.377Z,34.40
2017-10-22T13:20:51.626Z,35.13
2017-10-22T13:23:17.873Z,35.66
2017-10-22T13:25:44.106Z,35.64
2017-10-22T13:28:10.371Z,36.28
2017-10-22T13:30:36.716Z,34.63
2017-10-22T13:33:02.965Z,35.79
2017-10-22T13:35:29.206Z,34.54
2017-10-22T13:37:55.471Z,34.49
2017-10-22T13:40:21.733Z,34.73
2017-10-22T13:42:48.027Z,35.17
2017-10-22T13:45:14.280Z,37.56
2017-10-22T13:47:40.537Z,36.23
2017-10-22T13:50:06.803Z,37.08
2017-10-22T13:52:33.055Z,36.35
2017-10-22T13:54:59.325Z,36.68
2017-10-22T13:57:25.579Z,38.40
2017-10-22T13:59:51.821Z,39.95
2017-10-22T14:02:18.074Z,41.29
2017-10-22T14:04:44.313Z,41.54
2017-10-22T14:07:10.590Z,42.40
2017-10-22T14:09:36.855Z,42.68
2017-10-22T14:12:03.121Z,43.27
2017-10-22T14:14:29.446Z,44.33
2017-10-22T14:16:55.758Z,44.22
2017-10-22T14:19:22.199Z,44.57
2017-10-22T14:21:48.497Z,44.45
2017-10-22T14:24:14.794Z,44.85
2017-10-22T14:26:41.082Z,45.17
2017-10-22T14:29:07.407Z,45.16
2017-10-22T14:31:33.776Z,45.62
2017-10-22T14:34:00.149Z,46.20
2017-10-22T14:36:26.465Z,46.79
2017-10-22T14:38:52.814Z,46.86
2017-10-22T14:41:19.128Z,47.42
2017-10-22T14:43:45.512Z,49.53
2017-10-22T14:46:11.934Z,47.99
2017-10-22T14:48:38.279Z,48.56
2017-10-22T14:51:04.725Z,49.55
2017-10-22T14:53:31.109Z,49.47
2017-10-22T14:55:58.053Z,49.60
2017-10-22T14:58:24.841Z,49.68
2017-10-22T15:00:51.607Z,51.11
2017-10-22T15:05:58.797Z,50.38
2017-10-22T15:08:26.326Z,51.54
2017-10-22T15:10:53.452Z,51.31
2017-10-22T15:13:21.161Z,51.77
2017-10-22T15:15:47.770Z,53.11
2017-10-22T15:18:14.178Z,53.24
2017-10-22T15:20:41.272Z,54.47
2017-10-22T15:23:08.144Z,57.68
2017-10-22T15:25:34.518Z,55.62
2017-10-22T15:28:02.843Z,55.63
2017-10-22T15:30:32.252Z,56.83
2017-10-22T15:32:58.629Z,59.15
2017-10-22T15:35:24.946Z,59.17
2017-10-22T15:37:52.519Z,58.46
2017-10-22T15:40:18.898Z,58.65
2017-10-22T15:42:45.945Z,59.32
2017-10-22T15:45:15.314Z,58.86
2017-10-22T15:47:41.649Z,58.89
2017-10-22T15:50:08.041Z,60.19
2017-10-22T15:52:37.203Z,60.53
2017-10-22T15:55:03.523Z,59.82
2017-10-22T15:57:29.955Z,60.15
2017-10-22T15:59:56.364Z,62.14
2017-10-22T16:02:23.604Z,61.16
2017-10-22T16:04:50.290Z,60.54
2017-10-22T16:07:16.611Z,59.33
2017-10-22T16:09:43.022Z,57.98
2017-10-22T16:12:09.403Z,60.72
2017-10-22T16:14:36.972Z,59.03
2017-10-22T16:30:04.413Z,61.41
2017-10-22T16:32:30.738Z,61.92
2017-10-22T16:34:57.093Z,60.57
2017-10-22T16:37:23.389Z,60.15
2017-10-22T16:39:49.744Z,60.06
2017-10-22T16:42:16.122Z,61.13
2017-10-22T16:44:42.472Z,59.28
2017-10-22T16:47:08.801Z,59.63
2017-10-22T16:49:35.125Z,59.57
2017-10-22T16:52:01.741Z,59.70
2017-10-22T16:54:28.136Z,59.80
2017-10-22T16:56:54.473Z,60.41
2017-10-22T16:59:21.930Z,60.47
2017-10-22T17:01:48.235Z,62.13
2017-10-22T17:04:14.647Z,63.11
2017-10-22T17:06:41.043Z,65.77
2017-10-22T17:09:07.427Z,65.42
2017-10-22T17:11:37.136Z,65.91
2017-10-22T17:14:03.488Z,65.85
2017-10-22T17:16:29.800Z,66.42
2017-10-22T17:18:56.118Z,67.16
2017-10-22T17:21:22.459Z,67.33
2017-10-22T17:23:48.844Z,67.36
2017-10-22T17:26:15.279Z,67.39
2017-10-22T17:28:41.637Z,68.43
2017-10-22T17:31:08.039Z,68.90
2017-10-22T17:33:34.356Z,68.81
2017-10-22T17:36:00.977Z,68.88
2017-10-22T17:53:45.423Z,68.04
2017-10-22T17:56:12.880Z,68.86
2017-10-22T17:58:39.267Z,68.96
2017-10-22T18:01:05.560Z,68.56
2017-10-22T18:03:31.934Z,69.39
2017-10-22T18:05:59.186Z,70.17
2017-10-22T18:10:56.876Z,69.75
2017-10-22T18:13:27.148Z,69.48
2017-10-22T18:15:53.725Z,69.20
2017-10-22T18:18:20.270Z,68.64
2017-10-22T18:20:46.677Z,68.43
2017-10-22T18:23:13.018Z,68.78
2017-10-22T18:25:39.440Z,69.28
2017-10-22T18:28:05.971Z,69.09
2017-10-22T18:30:32.282Z,69.95
2017-10-22T18:32:58.613Z,70.55
2017-10-22T18:35:24.970Z,69.60
2017-10-22T18:37:51.321Z,68.92
2017-10-22T18:40:17.735Z,68.53
2017-10-22T18:42:44.069Z,69.18
2017-10-22T18:45:10.395Z,68.85
2017-10-22T18:47:36.748Z,68.90
2017-10-22T18:50:03.054Z,69.42
2017-10-22T18:52:29.386Z,69.80
2017-10-22T18:54:55.742Z,70.49
2017-10-22T18:57:22.053Z,70.74
2017-10-22T18:59:48.937Z,70.74
2017-10-22T19:02:15.367Z,70.91
2017-10-22T19:04:41.759Z,70.60
2017-10-22T19:07:09.838Z,70.51
2017-10-22T19:09:36.279Z,70.73
2017-10-22T19:12:02.611Z,70.51
2017-10-22T19:14:28.927Z,70.51
2017-10-22T19:16:55.278Z,70.67
2017-10-22T19:19:21.726Z,71.43
2017-10-22T19:21:48.025Z,71.56
2017-10-22T19:24:14.396Z,71.76
2017-10-22T19:26:40.848Z,72.19
2017-10-22T19:29:07.160Z,72.43
2017-10-22T19:31:33.484Z,72.62
2017-10-22T19:34:00.809Z,72.77
2017-10-22T19:36:27.151Z,72.71
2017-10-22T19:38:53.483Z,73.00
2017-10-22T19:41:19.822Z,72.95
2017-10-22T19:43:46.158Z,73.01
2017-10-22T19:46:12.553Z,73.58
2017-10-22T19:48:38.929Z,74.13
2017-10-22T19:51:05.256Z,74.31
2017-10-22T19:53:31.567Z,74.45
2017-10-22T19:55:58.490Z,74.20
2017-10-22T19:58:24.852Z,73.70
2017-10-22T20:00:51.185Z,72.54
2017-10-22T20:03:17.498Z,72.48
2017-10-22T20:05:44.925Z,72.80
2017-10-22T20:08:11.311Z,72.76
2017-10-22T20:10:37.648Z,72.46
2017-10-22T20:13:04.915Z,71.44
2017-10-22T20:15:31.226Z,71.37
2017-10-22T20:17:57.560Z,71.44
2017-10-22T20:20:23.880Z,72.05
2017-10-22T20:22:50.228Z,72.41
2017-10-22T20:25:16.556Z,72.44
2017-10-22T20:27:45.051Z,72.92
2017-10-22T20:30:11.320Z,72.64
2017-10-22T20:32:37.825Z,72.85
2017-10-22T20:35:04.127Z,73.33
2017-10-22T20:37:30.469Z,73.64
2017-10-22T20:39:56.788Z,74.51
2017-10-22T20:42:23.124Z,74.71
2017-10-22T20:44:49.472Z,75.87
2017-10-22T20:47:15.800Z,76.74
2017-10-22T20:49:42.153Z,76.50
2017-10-22T20:52:08.412Z,76.10
2017-10-22T20:54:34.684Z,75.87
2017-10-22T20:57:01.060Z,75.65
2017-10-22T20:59:27.311Z,75.16
2017-10-22T21:01:53.689Z,74.10
2017-10-22T21:04:20.003Z,73.93
2017-10-22T21:06:46.337Z,73.59
2017-10-22T21:09:12.675Z,73.51
2017-10-22T21:11:39.008Z,73.26
2017-10-22T21:14:05.331Z,73.25
2017-10-22T21:16:31.686Z,72.81
2017-10-22T21:18:58.001Z,72.68
2017-10-22T21:21:24.343Z,72.55
2017-10-22T21:23:50.662Z,72.87
2017-10-22T21:26:17.004Z,72.36
2017-10-22T21:28:43.333Z,70.10
2017-10-22T21:31:09.668Z,70.25
2017-10-22T21:33:36.013Z,70.13
2017-10-22T21:36:02.326Z,70.15
2017-10-22T21:38:28.667Z,69.57
2017-10-22T21:40:55.012Z,69.04
2017-10-22T21:43:21.331Z,68.61
2017-10-22T21:45:47.709Z,67.61
2017-10-22T21:48:13.978Z,67.98
2017-10-22T21:50:40.311Z,67.68
2017-10-22T21:53:06.660Z,67.98
2017-10-22T21:55:32.980Z,66.42
2017-10-22T21:57:59.297Z,66.61
2017-10-22T22:00:25.644Z,65.21
2017-10-22T22:02:51.985Z,65.53
2017-10-22T22:05:18.311Z,64.65
2017-10-22T22:07:44.627Z,64.30
2017-10-22T22:10:10.971Z,63.74
2017-10-22T22:12:37.308Z,63.98
2017-10-22T22:15:03.629Z,64.02
2017-10-22T22:17:29.973Z,63.41
2017-10-22T22:19:56.303Z,63.02
2017-10-22T22:22:22.635Z,62.59
2017-10-22T22:24:48.948Z,61.93
2017-10-22T22:27:15.312Z,62.12
2017-10-22T22:29:41.692Z,62.42
2017-10-22T22:32:07.968Z,62.54
2017-10-22T22:34:34.291Z,62.44
2017-10-22T22:37:00.626Z,60.89
2017-10-22T22:39:26.963Z,60.31
2017-10-22T22:41:53.352Z,61.39
2017-10-22T22:44:19.741Z,61.20
2017-10-22T22:46:46.013Z,61.45
2017-10-22T22:49:12.291Z,61.45
2017-10-22T22:51:38.613Z,60.84
2017-10-22T22:54:04.955Z,61.25
2017-10-22T22:56:31.341Z,60.43
2017-10-22T22:58:57.601Z,60.83
2017-10-22T23:01:23.945Z,61.22
2017-10-22T23:03:50.293Z,60.93
2017-10-22T23:06:16.613Z,61.05
2017-10-22T23:08:42.927Z,61.04
2017-10-22T23:11:09.263Z,61.28
2017-10-22T23:13:35.623Z,60.82
2017-10-22T23:16:01.998Z,60.71
2017-10-22T23:18:28.289Z,60.69
2017-10-22T23:20:54.616Z,60.34
2017-10-22T23:23:20.931Z,60.62
2017-10-22T23:25:47.284Z,59.89
2017-10-22T23:28:13.595Z,59.02
2017-10-22T23:30:39.940Z,58.83
2017-10-22T23:33:06.254Z,58.97
2017-10-22T23:35:32.605Z,58.40
2017-10-22T23:37:58.937Z,57.65
2017-10-22T23:40:25.264Z,57.16
2017-10-22T23:42:51.600Z,57.05
2017-10-22T23:45:17.929Z,57.37
2017-10-22T23:47:44.269Z,57.66
2017-10-22T23:50:10.593Z,57.67
2017-10-22T23:52:36.912Z,57.66
2017-10-22T23:55:03.250Z,58.02
2017-10-22T23:57:29.751Z,58.67
2017-10-22T23:59:56.105Z,58.95
